Terminal Aerodrome Forecast
Issued by NWS Paducah, KY

Home | Current Version | Previous Version | Text Only | Print | Product List | Glossary On
Versions: 1 2 3 4 5 6 7 8 9 10 11 12 13 14 15 16 17 18
000
FTUS43 KPAH 212300 RRA
TAFPAH
TAF
KPAH 212339Z 2200/2224 09004KT P6SM FEW250
     FM220430 12004KT P6SM FEW060 BKN080
     FM221000 14007KT 4SM BR OVC020
      TEMPO 2212/2215 2SM -RA BR
     FM221600 15008KT 5SM -RA BR OVC013=

USA.gov is the U.S. government's official web portal to all federal, state and local government web resources and services.